Startpagina
METAR-TAF:

METAR-TAF

Vliegvelden :

Dijon, Frankrijk

breedte: 47-16N, lengte: 005-05E, hoogte: 222 m

Actueel weer

Dit bericht is 44 minuten geleden gemaakt, om 20:00 UTC
Wind 5 kt uit het noordoosten, variërend tussen het noordwesten en het oosten
Temperatuur 24°C
Vochtigheid 57%
Druk 1016 hPa
Zicht 10 km of meer
geen wolken onder 1500 m en geen cumulonimbus

METAR: LFSD 182000Z AUTO 04005KT 310V090 CAVOK 24/15 Q1016

Tijdstip: 22:44 (20:44 UTC)


TAF: ontbreekt

Waarnemingen en weersverwachtingen van meer dan 4000 vliegvelden (METAR en TAF).

De beschikbare stations zijn de gele en rode punten op de kaart.

Ga met uw muis naar het station om de naam te zien.

Klik dan om waarnemingen en weersverwachtingen te zien.

kaart wijzigen: klik op de groene knoppen met een zwart kruis om in te zoomen, op de groene knop met een streepje om uit te zoomen of op de groene pijlen voor aangrenzende kaarten.


METAR-TAF: